Time;durP1;ratioP1;P1;durP2;ratioP2;P2;SDS_P1;SDS_P2;PMS_P1;PMS_P2;Temp;Humidity;BMP_temperature;BMP_pressure;BME280_temperature;BME280_humidity;BME280_pressure;Samples;Min_cycle;Max_cycle;Signal;HPM_P1;HPM_P2
2022/08/21 00:00:57;;;;;;;3.58;2.47;;;;;;;34.45;30.42;97678.25;5068362;28;20048;-79
2022/08/21 00:03:23;;;;;;;2.88;2.53;;;;;;;34.58;30.18;97680.66;5077945;28;20043;-80
2022/08/21 00:05:51;;;;;;;4.30;2.60;;;;;;;34.81;30.02;97673.69;5083331;28;20074;-80
2022/08/21 00:08:19;;;;;;;3.30;3.10;;;;;;;34.98;29.55;97659.44;5069387;28;20033;-80
2022/08/21 00:10:46;;;;;;;3.75;2.60;;;;;;;34.75;29.96;97642.28;5070436;28;20036;-80
2022/08/21 00:13:13;;;;;;;3.20;2.75;;;;;;;34.83;29.75;97641.78;5088344;28;20037;-80
2022/08/21 00:15:40;;;;;;;5.95;2.90;;;;;;;35.05;29.46;97647.53;5068539;28;20051;-79
2022/08/21 00:18:10;;;;;;;4.05;3.03;;;;;;;35.29;29.01;97650.59;5073388;28;20480;-79
2022/08/21 00:20:38;;;;;;;2.92;2.53;;;;;;;35.55;28.78;97650.31;5076544;28;20039;-80
2022/08/21 00:23:04;;;;;;;3.10;2.80;;;;;;;35.51;28.58;97646.94;5074444;28;20158;-79
2022/08/21 00:25:31;;;;;;;3.10;2.90;;;;;;;34.42;30.25;97650.03;5076183;28;20756;-80
2022/08/21 00:27:57;;;;;;;2.65;2.30;;;;;;;34.65;30.07;97658.13;5075590;28;20033;-79
2022/08/21 00:30:25;;;;;;;2.92;2.50;;;;;;;35.08;29.34;97652.19;5076844;28;20119;-79
2022/08/21 00:32:53;;;;;;;3.92;2.20;;;;;;;35.39;28.86;97655.53;5076278;28;20165;-79
2022/08/21 00:35:24;;;;;;;5.20;2.67;;;;;;;35.13;28.96;97648.53;5076770;28;20039;-79
2022/08/21 00:37:50;;;;;;;3.33;2.47;;;;;;;34.56;29.50;97651.88;5074653;28;20016;-79
2022/08/21 00:40:21;;;;;;;4.15;2.58;;;;;;;34.79;29.54;97632.72;5071911;28;20484;-80
2022/08/21 00:42:47;;;;;;;2.72;2.30;;;;;;;35.20;28.93;97642.31;5072981;28;20025;-80
2022/08/21 00:45:14;;;;;;;2.28;1.83;;;;;;;35.40;28.63;97634.22;5072050;28;20060;-79
2022/08/21 00:47:40;;;;;;;4.72;2.50;;;;;;;35.56;28.24;97641.25;5073916;28;20089;-80
2022/08/21 00:50:09;;;;;;;2.45;2.25;;;;;;;35.43;28.50;97635.25;5076252;28;20040;-80
2022/08/21 00:52:37;;;;;;;3.42;2.33;;;;;;;35.56;28.25;97644.09;5074864;28;20047;-80
2022/08/21 00:55:05;;;;;;;2.92;2.72;;;;;;;35.69;28.24;97638.59;5074703;28;20032;-79
2022/08/21 00:57:44;;;;;;;2.60;2.22;;;;;;;35.60;28.37;97632.38;5072040;28;20024;-79
2022/08/21 01:00:15;;;;;;;2.97;2.42;;;;;;;35.54;27.95;97618.13;5054293;28;20051;-79
2022/08/21 01:02:42;;;;;;;2.17;1.98;;;;;;;35.46;27.96;97619.94;5074989;28;20043;-80
2022/08/21 01:05:08;;;;;;;3.95;3.35;;;;;;;35.35;28.19;97617.13;5081472;28;20036;-80
2022/08/21 01:07:35;;;;;;;3.38;2.70;;;;;;;35.09;28.92;97625.19;5074625;28;20035;-79
2022/08/21 01:10:01;;;;;;;3.22;2.40;;;;;;;34.62;29.86;97624.94;5073551;28;20048;-80
2022/08/21 01:12:28;;;;;;;3.40;2.83;;;;;;;34.73;29.57;97627.00;5072363;28;20412;-80
2022/08/21 01:14:54;;;;;;;3.45;2.97;;;;;;;34.94;29.59;97627.53;5071650;28;20051;-80
2022/08/21 01:17:21;;;;;;;3.75;2.70;;;;;;;35.11;29.10;97611.97;5073008;28;20040;-80
2022/08/21 01:19:47;;;;;;;4.00;2.53;;;;;;;34.74;29.51;97611.44;5074561;28;20032;-79
2022/08/21 01:22:14;;;;;;;4.10;2.75;;;;;;;34.33;30.17;97604.66;5070986;28;20031;-80
2022/08/21 01:24:40;;;;;;;4.53;2.63;;;;;;;34.49;30.05;97598.97;5072166;28;20103;-79
2022/08/21 01:27:06;;;;;;;3.67;2.60;;;;;;;34.63;29.81;97592.28;5070866;28;20444;-80
2022/08/21 01:29:50;;;;;;;3.22;2.60;;;;;;;34.83;29.71;97576.94;5072638;28;20078;-79
2022/08/21 01:32:18;;;;;;;3.00;2.10;;;;;;;34.84;29.91;97574.88;5073169;28;20086;-79
2022/08/21 01:34:47;;;;;;;3.35;2.63;;;;;;;34.97;29.32;97575.91;5071469;28;20499;-79
2022/08/21 01:37:14;;;;;;;3.75;2.70;;;;;;;35.03;29.40;97576.69;5071620;28;20032;-79
2022/08/21 01:39:41;;;;;;;3.47;2.85;;;;;;;35.25;28.86;97585.22;5070191;28;20031;-79
2022/08/21 01:42:08;;;;;;;3.03;2.38;;;;;;;35.49;28.70;97583.84;5070564;28;20063;-79
2022/08/21 01:44:35;;;;;;;2.40;2.20;;;;;;;35.69;28.16;97577.81;5080477;28;20104;-79
2022/08/21 01:47:04;;;;;;;2.28;2.08;;;;;;;35.69;28.28;97590.03;5072265;28;20064;-79
2022/08/21 01:49:30;;;;;;;1.98;1.88;;;;;;;35.33;28.36;97580.53;5075728;28;20051;-79
2022/08/21 01:51:56;;;;;;;2.00;1.83;;;;;;;35.18;28.82;97585.75;5077620;28;20044;-80
2022/08/21 01:54:22;;;;;;;2.55;2.30;;;;;;;34.51;29.92;97584.19;5073211;28;20040;-79
2022/08/21 01:56:52;;;;;;;2.97;2.05;;;;;;;34.00;30.73;97586.13;5075830;28;20111;-79
2022/08/21 01:59:18;;;;;;;3.40;2.30;;;;;;;34.24;30.53;97573.56;5071463;28;20086;-79
2022/08/21 02:01:44;;;;;;;3.15;2.05;;;;;;;34.73;29.65;97575.66;5077875;28;20027;-79
2022/08/21 02:04:11;;;;;;;3.20;1.95;;;;;;;35.15;29.50;97575.38;5068840;28;20032;-80
2022/08/21 02:06:38;;;;;;;2.42;2.25;;;;;;;35.30;28.83;97573.00;5069459;28;20032;-79
2022/08/21 02:09:07;;;;;;;2.50;2.10;;;;;;;35.06;29.27;97577.72;5072603;28;20044;-80
2022/08/21 02:11:34;;;;;;;2.03;1.80;;;;;;;34.74;29.50;97565.81;5073316;28;20094;-79
2022/08/21 02:14:01;;;;;;;1.70;1.60;;;;;;;34.68;29.67;97570.75;5072829;28;20064;-80
2022/08/21 02:16:27;;;;;;;2.40;1.95;;;;;;;34.93;29.55;97571.75;5073265;28;20417;-80
2022/08/21 02:18:53;;;;;;;2.00;1.80;;;;;;;35.30;29.10;97569.38;5069438;28;20032;-80
2022/08/21 02:21:19;;;;;;;1.90;1.80;;;;;;;35.57;28.81;97571.38;5071596;28;20103;-80
2022/08/21 02:23:45;;;;;;;2.40;2.20;;;;;;;34.67;30.31;97566.31;5073762;28;20032;-80
2022/08/21 02:26:12;;;;;;;2.35;2.15;;;;;;;34.35;30.80;97557.22;5071470;28;20028;-80
2022/08/21 02:28:39;;;;;;;2.80;2.17;;;;;;;34.25;31.01;97555.13;5078548;28;20426;-80
2022/08/21 02:31:07;;;;;;;2.83;1.40;;;;;;;34.63;30.15;97560.13;5074589;28;20040;-80
2022/08/21 02:33:33;;;;;;;1.63;1.52;;;;;;;35.08;29.32;97555.91;5079836;28;20086;-80
2022/08/21 02:36:00;;;;;;;2.17;1.98;;;;;;;35.43;29.06;97555.28;5080280;28;20028;-80
2022/08/21 02:38:33;;;;;;;2.15;1.95;;;;;;;35.41;29.25;97557.91;5075821;28;20028;-79
2022/08/21 02:41:00;;;;;;;4.97;2.00;;;;;;;35.59;28.94;97545.16;5075789;28;20037;-80
2022/08/21 02:43:28;;;;;;;2.35;1.83;;;;;;;35.36;29.03;97553.75;5069791;28;20032;-79
2022/08/21 02:45:57;;;;;;;1.83;1.73;;;;;;;35.23;29.48;97549.91;5073002;28;20024;-79
2022/08/21 02:48:27;;;;;;;2.30;2.05;;;;;;;35.45;29.14;97546.22;5074908;28;20153;-80
2022/08/21 02:51:15;;;;;;;2.07;1.50;;;;;;;35.57;29.22;97553.47;5080831;28;20480;-80
2022/08/21 02:53:41;;;;;;;1.80;1.70;;;;;;;35.26;29.38;97546.81;5069054;28;20643;-80
2022/08/21 02:56:10;;;;;;;2.00;1.80;;;;;;;35.09;29.73;97548.13;5067789;28;20020;-80
2022/08/21 02:58:41;;;;;;;1.40;1.27;;;;;;;34.98;29.86;97546.06;5077726;28;20036;-80
2022/08/21 03:01:09;;;;;;;1.90;1.80;;;;;;;34.83;30.14;97547.63;5058994;28;20127;-79
2022/08/21 03:03:36;;;;;;;2.05;1.80;;;;;;;34.53;30.45;97545.34;5073316;28;20079;-79
2022/08/21 03:06:04;;;;;;;1.65;1.55;;;;;;;34.28;30.86;97532.09;5057308;28;20033;-79
2022/08/21 03:08:31;;;;;;;5.15;1.60;;;;;;;34.37;30.68;97536.75;5061019;28;20031;-79
2022/08/21 03:10:57;;;;;;;2.38;1.88;;;;;;;34.88;29.57;97532.59;5060322;28;20093;-80
2022/08/21 03:13:23;;;;;;;1.98;1.85;;;;;;;35.33;29.11;97542.63;5064069;28;20082;-78
2022/08/21 03:15:50;;;;;;;2.15;1.70;;;;;;;35.69;28.58;97547.16;5054106;28;20067;-79
2022/08/21 03:18:17;;;;;;;2.08;1.63;;;;;;;35.83;28.80;97548.91;5059546;28;20059;-79
2022/08/21 03:20:44;;;;;;;1.63;1.50;;;;;;;35.79;28.64;97553.34;5060134;28;20028;-79
2022/08/21 03:23:11;;;;;;;2.05;1.67;;;;;;;35.86;28.66;97561.38;5064661;28;20040;-79
2022/08/21 03:25:38;;;;;;;2.25;1.58;;;;;;;36.03;28.17;97562.88;5058648;28;20477;-79
2022/08/21 03:28:09;;;;;;;2.35;1.70;;;;;;;35.71;29.09;97564.56;5061059;28;20028;-79
2022/08/21 03:30:36;;;;;;;2.03;1.83;;;;;;;35.65;28.71;97558.09;5060689;28;20025;-79
2022/08/21 03:33:03;;;;;;;2.97;2.03;;;;;;;35.64;28.71;97570.06;5065250;28;20043;-80
2022/08/21 03:35:29;;;;;;;1.80;1.58;;;;;;;35.36;29.28;97570.13;5058709;28;20499;-79
2022/08/21 03:37:56;;;;;;;2.95;1.90;;;;;;;35.34;29.50;97564.16;5060291;28;20094;-80
2022/08/21 03:40:24;;;;;;;1.83;1.70;;;;;;;35.25;29.52;97575.88;5061095;28;20036;-79
2022/08/21 03:42:50;;;;;;;2.67;1.85;;;;;;;35.14;29.76;97575.91;5059861;28;20458;-80
2022/08/21 03:45:18;;;;;;;3.42;2.22;;;;;;;35.02;30.01;97571.50;5065387;28;20071;-80
2022/08/21 03:47:55;;;;;;;3.38;1.65;;;;;;;34.83;30.54;97571.25;5059230;28;20607;-79
2022/08/21 03:50:24;;;;;;;1.40;1.30;;;;;;;34.89;30.34;97576.94;5059638;28;20095;-80
2022/08/21 03:52:50;;;;;;;1.55;1.45;;;;;;;35.20;29.76;97573.78;5061093;28;20040;-79
2022/08/21 03:55:16;;;;;;;1.52;1.42;;;;;;;35.26;29.58;97571.72;5062479;28;20488;-79
2022/08/21 03:57:43;;;;;;;1.83;1.60;;;;;;;35.04;30.07;97571.75;5065335;28;20028;-79
2022/08/21 04:00:12;;;;;;;1.55;1.45;;;;;;;34.80;30.40;97575.13;5064917;28;20116;-80
2022/08/21 04:02:39;;;;;;;1.27;1.17;;;;;;;34.75;30.79;97576.69;5066594;28;20031;-80
2022/08/21 04:05:06;;;;;;;1.50;1.40;;;;;;;34.78;30.61;97574.09;5047152;28;20412;-80
2022/08/21 04:07:33;;;;;;;1.63;1.52;;;;;;;34.77;30.83;97573.34;5064318;28;20811;-80
2022/08/21 04:09:59;;;;;;;1.45;1.35;;;;;;;34.89;30.52;97577.75;5065965;28;20383;-80
2022/08/21 04:12:25;;;;;;;1.95;1.73;;;;;;;35.38;29.87;97578.97;5065100;28;20052;-79
2022/08/21 04:14:51;;;;;;;1.73;1.63;;;;;;;35.80;29.29;97580.63;5069090;28;20040;-79
2022/08/21 04:17:18;;;;;;;1.55;1.45;;;;;;;35.97;28.96;97584.97;5068046;28;20118;-79
2022/08/21 04:19:45;;;;;;;1.92;1.70;;;;;;;36.02;28.98;97583.41;5066288;28;20047;-80
2022/08/21 04:22:11;;;;;;;2.55;1.73;;;;;;;36.09;28.97;97579.97;5071042;28;20047;-80
2022/08/21 04:24:38;;;;;;;2.47;2.25;;;;;;;35.99;29.11;97585.22;5062057;28;20024;-80
2022/08/21 04:27:04;;;;;;;3.20;1.60;;;;;;;35.59;29.39;97580.22;5065170;28;20025;-80
2022/08/21 04:29:30;;;;;;;2.50;2.10;;;;;;;35.20;30.12;97577.44;5065649;28;20506;-80
2022/08/21 04:31:56;;;;;;;3.28;2.00;;;;;;;35.10;30.50;97578.25;5067442;28;20116;-80
2022/08/21 04:34:22;;;;;;;1.77;1.67;;;;;;;35.12;30.51;97578.50;5067258;28;20484;-80
2022/08/21 04:36:48;;;;;;;2.83;1.67;;;;;;;35.16;30.61;97579.78;5066744;28;20032;-80
2022/08/21 04:39:14;;;;;;;2.63;1.38;;;;;;;35.31;30.16;97580.25;5067481;28;20028;-80
2022/08/21 04:41:41;;;;;;;1.27;1.17;;;;;;;35.47;30.17;97580.75;5065049;28;22835;-80
2022/08/21 04:44:08;;;;;;;3.08;1.77;;;;;;;35.87;29.57;97575.13;5069971;28;20067;-80
2022/08/21 04:46:34;;;;;;;3.05;2.03;;;;;;;35.79;29.75;97576.22;5075038;28;20059;-80
2022/08/21 04:49:00;;;;;;;1.80;1.70;;;;;;;35.55;30.47;97581.75;5069858;28;20021;-80
2022/08/21 04:51:33;;;;;;;2.35;2.15;;;;;;;35.36;30.67;97584.38;5065723;28;20032;-80
2022/08/21 04:54:08;;;;;;;2.10;1.92;;;;;;;35.08;31.13;97583.72;5064684;28;20029;-80
2022/08/21 04:56:46;;;;;;;2.25;2.00;;;;;;;35.03;31.33;97584.50;5064005;28;20048;-80
2022/08/21 04:59:22;;;;;;;2.72;2.15;;;;;;;35.03;31.70;97581.63;5063174;28;20020;-80
2022/08/21 05:01:50;;;;;;;4.82;2.35;;;;;;;34.93;31.29;97589.66;5068426;28;20033;-80
2022/08/21 05:04:21;;;;;;;2.65;1.98;;;;;;;34.97;31.44;97589.38;5069299;28;20029;-80
2022/08/21 05:06:49;;;;;;;2.53;2.33;;;;;;;35.42;31.27;97593.72;5064839;28;20028;-80
2022/08/21 05:09:18;;;;;;;3.90;2.40;;;;;;;35.63;30.73;97589.28;5071901;28;20033;-80
2022/08/21 05:11:44;;;;;;;2.08;1.95;;;;;;;35.35;31.21;97591.41;5065817;28;20049;-80
2022/08/21 05:14:11;;;;;;;2.28;2.17;;;;;;;35.01;31.53;97587.81;5067256;28;20037;-80
2022/08/21 05:16:38;;;;;;;2.72;2.53;;;;;;;35.03;31.52;97599.50;5065835;28;20505;-80
2022/08/21 05:19:05;;;;;;;2.65;2.45;;;;;;;35.25;31.38;97593.78;5073266;28;20043;-80
2022/08/21 05:21:32;;;;;;;2.80;2.22;;;;;;;35.67;30.99;97601.19;5072252;28;20036;-80
2022/08/21 05:23:58;;;;;;;2.40;2.30;;;;;;;36.00;30.38;97601.09;5076229;28;20089;-80
2022/08/21 05:26:25;;;;;;;3.63;2.35;;;;;;;35.59;31.37;97593.72;5075785;28;20028;-80
2022/08/21 05:28:51;;;;;;;2.30;2.10;;;;;;;35.48;31.13;97599.41;5074836;28;20518;-79
2022/08/21 05:31:18;;;;;;;3.25;2.55;;;;;;;35.35;31.59;97599.97;5075202;28;20029;-79
2022/08/21 05:33:44;;;;;;;2.85;2.60;;;;;;;35.26;31.91;97598.19;5076149;28;20070;-79
2022/08/21 05:36:10;;;;;;;2.60;2.40;;;;;;;35.22;32.03;97600.53;5085470;28;20047;-79
2022/08/21 05:38:36;;;;;;;2.42;2.20;;;;;;;35.49;31.90;97596.06;5068625;28;20021;-79
2022/08/21 05:41:02;;;;;;;2.70;2.50;;;;;;;35.66;31.81;97598.88;5074392;28;20098;-79
2022/08/21 05:43:28;;;;;;;2.70;1.98;;;;;;;35.82;31.49;97598.03;5074905;28;20047;-79
2022/08/21 05:45:55;;;;;;;2.95;2.63;;;;;;;36.29;30.98;97593.91;5074517;28;20029;-80
2022/08/21 05:48:23;;;;;;;3.80;3.33;;;;;;;36.50;30.23;97595.06;5074382;28;20056;-80
2022/08/21 05:50:51;;;;;;;5.07;3.70;;;;;;;36.69;30.07;97598.81;5063726;28;20511;-79
2022/08/21 05:53:18;;;;;;;5.78;4.38;;;;;;;36.69;29.88;97598.81;5056391;28;20106;-79
2022/08/21 05:55:45;;;;;;;5.10;4.10;;;;;;;36.78;29.95;97599.81;5073854;28;20036;-79
2022/08/21 05:58:18;;;;;;;6.03;4.68;;;;;;;37.01;29.70;97587.66;5073548;28;20035;-80
2022/08/21 06:00:47;;;;;;;6.90;4.65;;;;;;;36.90;29.59;97596.28;5074862;28;20071;-79
2022/08/21 06:03:17;;;;;;;5.60;4.57;;;;;;;36.79;30.01;97592.75;5073743;28;20112;-80
2022/08/21 06:05:44;;;;;;;5.65;5.03;;;;;;;36.70;29.94;97596.72;5077619;28;20024;-79
2022/08/21 06:08:10;;;;;;;7.57;5.20;;;;;;;36.77;30.24;97603.97;5076122;28;20033;-80
2022/08/21 06:10:36;;;;;;;10.82;6.55;;;;;;;37.02;29.83;97600.63;5071442;28;20484;-81
2022/08/21 06:13:03;;;;;;;13.63;6.28;;;;;;;37.12;29.72;97598.19;5077614;28;20561;-79
2022/08/21 06:15:29;;;;;;;10.02;5.25;;;;;;;37.06;29.54;97600.34;5073522;28;20123;-79
2022/08/21 06:17:55;;;;;;;8.95;5.80;;;;;;;37.21;29.60;97601.50;5071012;28;20068;-79
2022/08/21 06:20:22;;;;;;;6.25;5.20;;;;;;;37.47;29.51;97598.13;5069598;28;20024;-79
2022/08/21 06:22:48;;;;;;;8.45;6.00;;;;;;;37.59;29.04;97602.41;5073044;28;20483;-79
2022/08/21 06:25:14;;;;;;;7.43;5.47;;;;;;;37.75;28.92;97598.56;5076073;28;20109;-79
2022/08/21 06:27:41;;;;;;;5.85;4.55;;;;;;;37.83;28.84;97593.03;5073997;28;20103;-79
2022/08/21 06:30:08;;;;;;;6.35;4.78;;;;;;;37.87;29.15;97596.34;5070995;28;20033;-79
2022/08/21 06:32:35;;;;;;;5.05;4.10;;;;;;;37.94;28.74;97590.78;5066428;28;20029;-79
2022/08/21 06:35:01;;;;;;;7.85;5.15;;;;;;;37.89;29.04;97597.38;5072651;28;20438;-79
2022/08/21 06:37:27;;;;;;;8.10;5.05;;;;;;;37.96;29.17;97604.56;5070870;28;20099;-79
2022/08/21 06:39:53;;;;;;;9.02;5.45;;;;;;;37.90;28.45;97603.88;5072618;28;20480;-79
2022/08/21 06:42:19;;;;;;;8.80;5.10;;;;;;;37.55;28.86;97612.63;5072280;28;20036;-79
2022/08/21 06:44:47;;;;;;;7.68;5.30;;;;;;;37.61;29.45;97607.59;5072296;28;20024;-79
2022/08/21 06:47:13;;;;;;;8.65;6.00;;;;;;;37.81;29.13;97612.84;5044024;28;20394;-79
2022/08/21 06:49:40;;;;;;;7.53;5.15;;;;;;;37.85;29.02;97611.25;5054822;28;20028;-79
2022/08/21 06:52:10;;;;;;;9.90;6.68;;;;;;;37.62;29.02;97614.88;5081323;28;20469;-79
2022/08/21 06:54:36;;;;;;;;;;;;;;;37.43;29.16;97614.84;5073595;28;20045;-79
2022/08/21 06:57:03;;;;;;;7.20;6.20;;;;;;;37.29;29.52;97613.13;5073240;28;19916;-79
2022/08/21 06:59:29;;;;;;;8.75;5.70;;;;;;;37.47;29.59;97608.78;5073351;28;20586;-79
2022/08/21 07:01:55;;;;;;;10.80;6.60;;;;;;;37.21;29.40;97612.16;5072688;28;20067;-79
2022/08/21 07:04:21;;;;;;;11.45;6.47;;;;;;;37.25;29.64;97606.94;5071247;28;20033;-79
2022/08/21 07:06:47;;;;;;;7.30;6.10;;;;;;;37.46;29.54;97608.00;5071963;28;20033;-79
2022/08/21 07:09:13;;;;;;;11.25;8.45;;;;;;;36.88;30.19;97612.44;5071844;28;20028;-79
2022/08/21 07:11:40;;;;;;;15.88;8.98;;;;;;;36.75;30.25;97618.81;5071454;28;20502;-79
2022/08/21 07:14:06;;;;;;;10.30;8.20;;;;;;;36.43;30.28;97615.63;5072036;28;20032;-79
2022/08/21 07:16:32;;;;;;;13.98;9.30;;;;;;;36.22;30.75;97614.47;5071952;28;20040;-79
2022/08/21 07:18:59;;;;;;;15.52;9.68;;;;;;;36.39;30.88;97611.50;5071019;28;20032;-79
2022/08/21 07:21:25;;;;;;;12.82;9.35;;;;;;;36.34;30.51;97612.31;5071821;28;20037;-79
2022/08/21 07:23:52;;;;;;;16.20;11.00;;;;;;;36.42;30.78;97624.75;5073783;28;20043;-79
2022/08/21 07:26:20;;;;;;;16.40;11.30;;;;;;;36.02;31.57;97623.41;5093245;28;20098;-79
2022/08/21 07:28:48;;;;;;;16.60;11.60;;;;;;;35.72;32.40;97614.69;5095617;28;20387;-79
2022/08/21 07:31:17;;;;;;;18.60;11.35;;;;;;;35.76;31.71;97622.97;5088177;28;20075;-79
2022/08/21 07:33:44;;;;;;;17.17;10.68;;;;;;;35.62;32.08;97619.13;5074332;28;20111;-79
2022/08/21 07:36:10;;;;;;;17.30;12.02;;;;;;;35.56;32.22;97620.47;5074655;28;20037;-79
2022/08/21 07:38:37;;;;;;;17.25;11.48;;;;;;;35.74;31.90;97619.88;5080598;28;20104;-79
2022/08/21 07:41:12;;;;;;;17.40;11.65;;;;;;;35.64;31.75;97627.94;5076396;28;20044;-80
2022/08/21 07:43:38;;;;;;;14.40;11.18;;;;;;;35.84;32.49;97636.22;5075834;28;20559;-80
2022/08/21 07:46:04;;;;;;;20.67;13.40;;;;;;;35.83;32.25;97622.44;5072963;28;20029;-80
2022/08/21 07:48:31;;;;;;;20.33;13.57;;;;;;;35.53;32.00;97624.34;5072398;28;20041;-81
2022/08/21 07:50:58;;;;;;;18.67;12.27;;;;;;;35.01;33.81;97624.91;5069757;28;20047;-81
2022/08/21 07:53:24;;;;;;;19.90;12.20;;;;;;;35.45;32.09;97624.09;5073755;28;20028;-81
2022/08/21 07:55:50;;;;;;;19.83;12.85;;;;;;;35.59;31.67;97622.28;5070868;28;20028;-81
2022/08/21 07:58:17;;;;;;;17.05;11.48;;;;;;;36.12;31.60;97624.66;5076204;28;20551;-81
2022/08/21 08:00:43;;;;;;;20.30;12.20;;;;;;;36.22;31.11;97631.63;5075519;28;20115;-81
2022/08/21 08:03:09;;;;;;;17.65;11.20;;;;;;;36.38;31.09;97618.53;5075711;28;20035;-81
2022/08/21 08:05:37;;;;;;;16.52;11.38;;;;;;;36.32;31.79;97627.13;5075067;28;20028;-81
2022/08/21 08:08:03;;;;;;;19.95;13.20;;;;;;;36.04;31.20;97626.50;5075556;28;20029;-81
2022/08/21 08:10:29;;;;;;;17.00;11.07;;;;;;;35.21;34.39;97618.19;5057177;28;20036;-82
2022/08/21 08:12:55;;;;;;;19.40;11.90;;;;;;;35.66;32.37;97618.88;5076047;28;20055;-80
2022/08/21 08:15:24;;;;;;;17.10;12.30;;;;;;;35.98;31.54;97617.97;5074161;28;20033;-82
2022/08/21 08:17:50;;;;;;;18.13;11.30;;;;;;;36.14;31.34;97619.19;5075355;28;20037;-80
2022/08/21 08:20:18;;;;;;;14.18;10.43;;;;;;;35.78;32.72;97626.09;5074922;28;20025;-81
2022/08/21 08:22:45;;;;;;;15.55;11.55;;;;;;;36.41;31.04;97618.22;5070600;28;20119;-82
2022/08/21 08:25:13;;;;;;;14.38;10.48;;;;;;;36.38;32.09;97618.53;5074910;28;20028;-82
2022/08/21 08:27:40;;;;;;;17.00;10.70;;;;;;;35.76;33.92;97622.97;5071610;28;20027;-81
2022/08/21 08:30:09;;;;;;;17.30;12.93;;;;;;;35.68;32.50;97625.63;5074789;28;20035;-81
2022/08/21 08:32:36;;;;;;;16.63;11.68;;;;;;;35.60;32.85;97618.88;5076151;28;20037;-82
2022/08/21 08:35:03;;;;;;;18.17;12.55;;;;;;;35.85;32.28;97619.84;5075253;28;20093;-80
2022/08/21 08:37:29;;;;;;;17.77;12.50;;;;;;;35.92;31.73;97617.19;5075882;28;20033;-80
2022/08/21 08:39:55;;;;;;;19.75;11.38;;;;;;;35.91;32.17;97626.31;5075341;28;20032;-80
2022/08/21 08:42:29;;;;;;;18.77;12.73;;;;;;;36.04;31.58;97620.78;5075077;28;20093;-80
2022/08/21 08:45:07;;;;;;;18.45;12.93;;;;;;;35.82;31.97;97621.66;5072749;28;20024;-80
2022/08/21 08:47:37;;;;;;;18.45;13.30;;;;;;;35.40;32.48;97617.09;5072927;28;20029;-80
2022/08/21 08:50:16;;;;;;;19.85;12.95;;;;;;;35.22;33.40;97614.00;5071937;28;20111;-80
2022/08/21 08:52:51;;;;;;;21.40;13.40;;;;;;;35.48;32.51;97619.41;5075467;28;20033;-80
2022/08/21 08:55:35;;;;;;;19.88;13.20;;;;;;;35.71;32.47;97613.13;5094390;28;20480;-80
2022/08/21 08:58:02;;;;;;;21.75;12.70;;;;;;;36.07;31.84;97616.91;5081865;28;20112;-81
2022/08/21 09:00:28;;;;;;;17.60;11.80;;;;;;;36.45;31.36;97610.19;5066054;28;20056;-78
2022/08/21 09:02:58;;;;;;;18.30;10.75;;;;;;;36.68;30.79;97616.53;5066444;28;20032;-78
2022/08/21 09:05:35;;;;;;;15.48;11.02;;;;;;;36.95;30.68;97611.88;5068716;28;20045;-80
2022/08/21 09:08:20;;;;;;;18.13;12.00;;;;;;;36.80;30.52;97612.28;5071495;28;20154;-79
2022/08/21 09:11:09;;;;;;;17.60;12.55;;;;;;;36.38;32.38;97612.81;5074116;28;20045;-79
2022/08/21 09:13:41;;;;;;;19.17;12.25;;;;;;;36.25;31.54;97613.41;5070615;28;20158;-79
2022/08/21 09:16:16;;;;;;;17.40;11.73;;;;;;;36.17;31.90;97615.28;5072250;28;20102;-79
2022/08/21 09:18:51;;;;;;;19.17;12.13;;;;;;;36.72;30.63;97612.06;5064620;28;20115;-80
2022/08/21 09:21:49;;;;;;;18.92;12.35;;;;;;;36.87;30.65;97605.97;5067338;28;20032;-80
2022/08/21 09:24:44;;;;;;;19.02;12.30;;;;;;;36.94;30.22;97616.06;5064389;28;20032;-80
2022/08/21 09:27:16;;;;;;;18.13;11.65;;;;;;;36.86;31.03;97612.19;5076593;28;20484;-80
2022/08/21 09:29:47;;;;;;;16.02;10.70;;;;;;;37.25;30.49;97607.69;5063491;28;20040;-80
2022/08/21 09:32:23;;;;;;;16.08;10.43;;;;;;;37.50;30.20;97607.72;5072067;28;20040;-80
2022/08/21 09:34:57;;;;;;;12.80;9.85;;;;;;;37.32;30.52;97604.22;5077753;28;20492;-80
2022/08/21 09:37:24;;;;;;;17.83;10.02;;;;;;;37.50;29.87;97602.78;5064582;28;20076;-80
2022/08/21 09:39:50;;;;;;;16.42;10.45;;;;;;;37.49;29.51;97601.22;5061927;28;20044;-79
2022/08/21 09:42:32;;;;;;;12.27;9.32;;;;;;;37.77;30.28;97600.88;5067517;28;20041;-79
2022/08/21 09:45:16;;;;;;;12.98;9.55;;;;;;;37.96;29.78;97591.03;5071109;28;20040;-79
2022/08/21 09:47:43;;;;;;;13.05;9.52;;;;;;;38.09;28.91;97581.72;5071592;28;20036;-79
2022/08/21 09:50:17;;;;;;;12.07;8.27;;;;;;;38.26;30.09;97585.13;5069985;28;20487;-79
2022/08/21 09:52:46;;;;;;;13.88;9.02;;;;;;;38.43;29.37;97585.69;5073601;28;20033;-79
2022/08/21 09:58:06;;;;;;;12.40;9.07;;;;;;;38.38;29.51;97583.66;5060545;28;20036;-79
2022/08/21 10:00:35;;;;;;;16.60;10.55;;;;;;;38.16;29.23;97571.72;5071541;28;20142;-79
2022/08/21 10:03:14;;;;;;;17.23;10.77;;;;;;;38.05;28.86;97578.38;5075931;28;20060;-79
2022/08/21 10:05:50;;;;;;;14.57;10.20;;;;;;;38.13;28.84;97584.28;5081187;28;20063;-79
2022/08/21 10:08:19;;;;;;;14.38;10.48;;;;;;;38.23;29.26;97588.31;5075468;28;20032;-80
2022/08/21 10:10:45;;;;;;;13.35;9.73;;;;;;;38.25;29.21;97580.72;5068155;28;20037;-81
2022/08/21 10:13:26;;;;;;;15.70;11.18;;;;;;;37.46;30.16;97592.94;5067532;28;20111;-78
2022/08/21 10:16:20;;;;;;;12.77;10.15;;;;;;;38.09;30.37;97595.28;5070865;28;20242;-78
2022/08/21 10:19:16;;;;;;;17.10;9.98;;;;;;;38.16;29.84;97594.69;5077944;28;20032;-78
2022/08/21 10:22:01;;;;;;;14.70;10.15;;;;;;;38.21;29.60;97600.31;5060394;28;20123;-78
2022/08/21 10:24:30;;;;;;;13.27;10.00;;;;;;;37.58;30.06;97600.06;5067415;28;20033;-79
2022/08/21 10:26:56;;;;;;;15.70;10.15;;;;;;;37.57;29.55;97593.59;5070801;28;20040;-78
2022/08/21 10:29:43;;;;;;;18.02;11.32;;;;;;;37.32;30.46;97600.59;5075548;28;20036;-79
2022/08/21 10:32:12;;;;;;;15.75;11.55;;;;;;;37.27;30.47;97587.88;5070142;28;20148;-78
2022/08/21 10:34:47;;;;;;;16.48;12.30;;;;;;;36.87;30.62;97603.09;5071946;28;20115;-78
2022/08/21 10:37:24;;;;;;;14.30;10.43;;;;;;;35.03;32.79;97610.94;5079119;28;20499;-79
2022/08/21 10:39:58;;;;;;;12.95;9.60;;;;;;;35.27;31.27;97610.38;5076994;28;20051;-78
2022/08/21 10:42:31;;;;;;;11.38;7.95;;;;;;;35.28;32.41;97609.09;5076679;28;20036;-78
2022/08/21 10:45:11;;;;;;;9.73;7.75;;;;;;;34.79;32.58;97610.66;5064159;28;20044;-78
2022/08/21 10:47:55;;;;;;;10.43;6.97;;;;;;;34.54;32.21;97617.41;5069007;28;20547;-78
2022/08/21 10:50:44;;;;;;;9.05;6.35;;;;;;;34.10;32.19;97617.31;5067781;28;20488;-79
2022/08/21 10:53:35;;;;;;;6.82;5.38;;;;;;;33.88;32.64;97620.81;5069232;28;20055;-81
2022/08/21 10:56:16;;;;;;;5.88;4.75;;;;;;;33.50;33.35;97627.06;5084696;28;20036;-81
2022/08/21 10:59:11;;;;;;;4.88;3.83;;;;;;;33.02;34.05;97627.84;5075594;28;20055;-83
2022/08/21 11:01:51;;;;;;;5.80;3.47;;;;;;;32.99;33.33;97628.81;5067540;28;20395;-83
2022/08/21 11:04:48;;;;;;;3.75;2.53;;;;;;;32.38;34.28;97625.41;5070741;28;20036;-78
2022/08/21 11:07:33;;;;;;;2.42;2.10;;;;;;;32.55;34.76;97622.75;5064512;28;20060;-79
2022/08/21 11:10:12;;;;;;;3.47;2.80;;;;;;;32.68;34.29;97626.75;5079136;28;20044;-79
2022/08/21 11:12:50;;;;;;;2.42;1.88;;;;;;;33.03;33.18;97632.22;5074548;28;20095;-79
2022/08/21 11:15:34;;;;;;;1.95;1.70;;;;;;;33.73;32.33;97635.25;5072309;28;20094;-79
2022/08/21 11:18:09;;;;;;;2.10;1.58;;;;;;;33.69;32.27;97625.41;5073221;28;20106;-80
2022/08/21 11:20:46;;;;;;;1.50;1.40;;;;;;;32.93;33.26;97630.06;5076072;28;20040;-80
2022/08/21 11:23:24;;;;;;;1.05;1.00;;;;;;;32.95;33.28;97628.28;5080604;28;20376;-82
2022/08/21 11:26:00;;;;;;;1.85;1.17;;;;;;;33.32;32.75;97629.06;5079787;28;20028;-80
2022/08/21 11:28:46;;;;;;;1.73;1.17;;;;;;;33.20;32.96;97632.34;5075801;28;20035;-79
2022/08/21 11:31:22;;;;;;;2.10;1.30;;;;;;;33.31;32.99;97633.19;5074165;28;20522;-79
2022/08/21 11:33:57;;;;;;;1.45;1.15;;;;;;;33.87;32.08;97633.50;5071111;28;20040;-80
2022/08/21 11:36:32;;;;;;;1.60;0.82;;;;;;;33.55;31.93;97638.53;5068822;28;20052;-80
2022/08/21 11:39:22;;;;;;;0.80;0.80;;;;;;;33.80;32.23;97636.84;5071508;28;20032;-83
2022/08/21 11:42:17;;;;;;;1.25;0.88;;;;;;;33.79;32.00;97632.44;5068830;28;20599;-81
2022/08/21 11:45:12;;;;;;;0.80;0.80;;;;;;;33.79;32.71;97621.03;5066483;28;20044;-80